sensor_id;sensor_type;location;lat;lon;timestamp;pressure;altitude;pressure_sealevel;temperature
10869;BMP180;62667;48.698;8.762;2022-08-19T00:02:04;95674.00;;;19.80
10869;BMP180;62667;48.698;8.762;2022-08-19T00:04:35;95668.00;;;19.60
10869;BMP180;62667;48.698;8.762;2022-08-19T00:07:03;95663.00;;;19.60
10869;BMP180;62667;48.698;8.762;2022-08-19T00:09:32;95669.00;;;19.60
10869;BMP180;62667;48.698;8.762;2022-08-19T00:11:59;95657.00;;;19.60
10869;BMP180;62667;48.698;8.762;2022-08-19T00:14:31;95668.00;;;19.70
10869;BMP180;62667;48.698;8.762;2022-08-19T00:16:58;95653.00;;;19.60
10869;BMP180;62667;48.698;8.762;2022-08-19T00:19:25;95667.00;;;19.60
10869;BMP180;62667;48.698;8.762;2022-08-19T00:21:52;95651.00;;;19.70
10869;BMP180;62667;48.698;8.762;2022-08-19T00:24:20;95660.00;;;19.70
10869;BMP180;62667;48.698;8.762;2022-08-19T00:26:47;95660.00;;;19.70
10869;BMP180;62667;48.698;8.762;2022-08-19T00:29:19;95649.00;;;19.60
10869;BMP180;62667;48.698;8.762;2022-08-19T00:31:47;95635.00;;;19.60
10869;BMP180;62667;48.698;8.762;2022-08-19T00:34:15;95636.00;;;19.60
10869;BMP180;62667;48.698;8.762;2022-08-19T00:36:44;95623.00;;;19.50
10869;BMP180;62667;48.698;8.762;2022-08-19T00:39:12;95627.00;;;19.40
10869;BMP180;62667;48.698;8.762;2022-08-19T00:41:41;95633.00;;;19.30
10869;BMP180;62667;48.698;8.762;2022-08-19T00:44:11;95624.00;;;19.30
10869;BMP180;62667;48.698;8.762;2022-08-19T00:46:41;95625.00;;;19.40
10869;BMP180;62667;48.698;8.762;2022-08-19T00:49:20;95621.00;;;19.40
10869;BMP180;62667;48.698;8.762;2022-08-19T00:51:54;95630.00;;;19.50
10869;BMP180;62667;48.698;8.762;2022-08-19T00:54:22;95633.00;;;19.50
10869;BMP180;62667;48.698;8.762;2022-08-19T00:56:50;95642.00;;;19.30
10869;BMP180;62667;48.698;8.762;2022-08-19T00:59:18;95653.00;;;19.20
10869;BMP180;62667;48.698;8.762;2022-08-19T01:01:46;95651.00;;;19.20
10869;BMP180;62667;48.698;8.762;2022-08-19T01:04:14;95652.00;;;19.20
10869;BMP180;62667;48.698;8.762;2022-08-19T01:06:41;95651.00;;;19.30
10869;BMP180;62667;48.698;8.762;2022-08-19T01:09:10;95646.00;;;19.30
10869;BMP180;62667;48.698;8.762;2022-08-19T01:11:41;95648.00;;;19.30
10869;BMP180;62667;48.698;8.762;2022-08-19T01:14:11;95638.00;;;19.30
10869;BMP180;62667;48.698;8.762;2022-08-19T01:16:39;95642.00;;;19.40
10869;BMP180;62667;48.698;8.762;2022-08-19T01:19:12;95644.00;;;19.30
10869;BMP180;62667;48.698;8.762;2022-08-19T01:21:47;95642.00;;;19.40
10869;BMP180;62667;48.698;8.762;2022-08-19T01:24:19;95638.00;;;19.40
10869;BMP180;62667;48.698;8.762;2022-08-19T01:26:47;95634.00;;;19.40
10869;BMP180;62667;48.698;8.762;2022-08-19T01:29:14;95635.00;;;19.20
10869;BMP180;62667;48.698;8.762;2022-08-19T01:31:41;95633.00;;;19.30
10869;BMP180;62667;48.698;8.762;2022-08-19T01:34:08;95628.00;;;19.30
10869;BMP180;62667;48.698;8.762;2022-08-19T01:36:39;95632.00;;;19.40
10869;BMP180;62667;48.698;8.762;2022-08-19T01:39:11;95630.00;;;19.40
10869;BMP180;62667;48.698;8.762;2022-08-19T01:41:41;95629.00;;;19.40
10869;BMP180;62667;48.698;8.762;2022-08-19T01:44:10;95633.00;;;19.30
10869;BMP180;62667;48.698;8.762;2022-08-19T01:46:37;95635.00;;;19.30
10869;BMP180;62667;48.698;8.762;2022-08-19T01:49:06;95637.00;;;19.30
10869;BMP180;62667;48.698;8.762;2022-08-19T01:51:33;95626.00;;;19.30
10869;BMP180;62667;48.698;8.762;2022-08-19T01:54:00;95622.00;;;19.30
10869;BMP180;62667;48.698;8.762;2022-08-19T01:56:29;95619.00;;;19.40
10869;BMP180;62667;48.698;8.762;2022-08-19T01:59:01;95621.00;;;19.20
10869;BMP180;62667;48.698;8.762;2022-08-19T02:01:31;95615.00;;;19.40
10869;BMP180;62667;48.698;8.762;2022-08-19T02:03:58;95618.00;;;19.30
10869;BMP180;62667;48.698;8.762;2022-08-19T02:06:27;95625.00;;;19.20
10869;BMP180;62667;48.698;8.762;2022-08-19T02:08:56;95628.00;;;19.30
10869;BMP180;62667;48.698;8.762;2022-08-19T02:11:26;95633.00;;;19.20
10869;BMP180;62667;48.698;8.762;2022-08-19T02:13:57;95641.00;;;19.20
10869;BMP180;62667;48.698;8.762;2022-08-19T02:16:24;95630.00;;;19.30
10869;BMP180;62667;48.698;8.762;2022-08-19T02:18:51;95628.00;;;19.30
10869;BMP180;62667;48.698;8.762;2022-08-19T02:21:20;95631.00;;;19.20
10869;BMP180;62667;48.698;8.762;2022-08-19T02:23:47;95636.00;;;19.30
10869;BMP180;62667;48.698;8.762;2022-08-19T02:26:14;95628.00;;;19.20
10869;BMP180;62667;48.698;8.762;2022-08-19T02:28:41;95628.00;;;19.20
10869;BMP180;62667;48.698;8.762;2022-08-19T02:31:11;95626.00;;;19.20
10869;BMP180;62667;48.698;8.762;2022-08-19T02:33:41;95618.00;;;19.10
10869;BMP180;62667;48.698;8.762;2022-08-19T02:36:09;95622.00;;;19.10
10869;BMP180;62667;48.698;8.762;2022-08-19T02:38:36;95620.00;;;19.10
10869;BMP180;62667;48.698;8.762;2022-08-19T02:41:06;95625.00;;;19.00
10869;BMP180;62667;48.698;8.762;2022-08-19T02:43:34;95616.00;;;19.10
10869;BMP180;62667;48.698;8.762;2022-08-19T02:46:11;95613.00;;;19.10
10869;BMP180;62667;48.698;8.762;2022-08-19T02:48:39;95609.00;;;19.00
10869;BMP180;62667;48.698;8.762;2022-08-19T02:51:06;95605.00;;;18.90
10869;BMP180;62667;48.698;8.762;2022-08-19T02:53:33;95604.00;;;19.00
10869;BMP180;62667;48.698;8.762;2022-08-19T02:56:07;95611.00;;;19.10
10869;BMP180;62667;48.698;8.762;2022-08-19T02:58:34;95617.00;;;19.00
10869;BMP180;62667;48.698;8.762;2022-08-19T03:01:00;95624.00;;;18.80
10869;BMP180;62667;48.698;8.762;2022-08-19T03:03:28;95619.00;;;19.00
10869;BMP180;62667;48.698;8.762;2022-08-19T03:06:07;95614.00;;;18.90
10869;BMP180;62667;48.698;8.762;2022-08-19T03:08:34;95624.00;;;18.90
10869;BMP180;62667;48.698;8.762;2022-08-19T03:11:01;95626.00;;;18.80
10869;BMP180;62667;48.698;8.762;2022-08-19T03:13:28;95635.00;;;18.80
10869;BMP180;62667;48.698;8.762;2022-08-19T03:15:55;95628.00;;;18.90
10869;BMP180;62667;48.698;8.762;2022-08-19T03:18:22;95634.00;;;18.80
10869;BMP180;62667;48.698;8.762;2022-08-19T03:20:51;95625.00;;;18.80
10869;BMP180;62667;48.698;8.762;2022-08-19T03:23:23;95629.00;;;18.80
10869;BMP180;62667;48.698;8.762;2022-08-19T03:25:53;95623.00;;;18.70
10869;BMP180;62667;48.698;8.762;2022-08-19T03:28:20;95613.00;;;18.60
10869;BMP180;62667;48.698;8.762;2022-08-19T03:30:59;95614.00;;;18.60
10869;BMP180;62667;48.698;8.762;2022-08-19T03:33:29;95610.00;;;18.60
10869;BMP180;62667;48.698;8.762;2022-08-19T03:36:03;95619.00;;;18.70
10869;BMP180;62667;48.698;8.762;2022-08-19T03:38:30;95622.00;;;18.70
10869;BMP180;62667;48.698;8.762;2022-08-19T03:40:57;95618.00;;;18.60
10869;BMP180;62667;48.698;8.762;2022-08-19T03:43:24;95614.00;;;18.60
10869;BMP180;62667;48.698;8.762;2022-08-19T03:46:01;95606.00;;;18.60
10869;BMP180;62667;48.698;8.762;2022-08-19T03:48:28;95605.00;;;18.60
10869;BMP180;62667;48.698;8.762;2022-08-19T03:50:58;95605.00;;;18.50
10869;BMP180;62667;48.698;8.762;2022-08-19T03:53:27;95605.00;;;18.40
10869;BMP180;62667;48.698;8.762;2022-08-19T03:55:55;95612.00;;;18.50
10869;BMP180;62667;48.698;8.762;2022-08-19T03:58:22;95623.00;;;18.50
10869;BMP180;62667;48.698;8.762;2022-08-19T04:00:49;95632.00;;;18.50
10869;BMP180;62667;48.698;8.762;2022-08-19T04:03:16;95631.00;;;18.60
10869;BMP180;62667;48.698;8.762;2022-08-19T04:05:45;95625.00;;;18.50
10869;BMP180;62667;48.698;8.762;2022-08-19T04:08:13;95627.00;;;18.30
10869;BMP180;62667;48.698;8.762;2022-08-19T04:10:48;95625.00;;;18.40
10869;BMP180;62667;48.698;8.762;2022-08-19T04:13:15;95619.00;;;18.50
10869;BMP180;62667;48.698;8.762;2022-08-19T04:15:44;95619.00;;;18.50
10869;BMP180;62667;48.698;8.762;2022-08-19T04:18:14;95619.00;;;18.40
10869;BMP180;62667;48.698;8.762;2022-08-19T04:20:45;95620.00;;;18.40
10869;BMP180;62667;48.698;8.762;2022-08-19T04:23:13;95635.00;;;18.40
10869;BMP180;62667;48.698;8.762;2022-08-19T04:25:43;95636.00;;;18.30
10869;BMP180;62667;48.698;8.762;2022-08-19T04:28:14;95633.00;;;18.40
10869;BMP180;62667;48.698;8.762;2022-08-19T04:30:42;95639.00;;;18.50
10869;BMP180;62667;48.698;8.762;2022-08-19T04:33:10;95638.00;;;18.40
10869;BMP180;62667;48.698;8.762;2022-08-19T04:35:38;95644.00;;;18.40
10869;BMP180;62667;48.698;8.762;2022-08-19T04:38:06;95632.00;;;18.50
10869;BMP180;62667;48.698;8.762;2022-08-19T04:40:33;95638.00;;;18.40
10869;BMP180;62667;48.698;8.762;2022-08-19T04:43:19;95637.00;;;18.40
10869;BMP180;62667;48.698;8.762;2022-08-19T04:45:46;95639.00;;;18.50
10869;BMP180;62667;48.698;8.762;2022-08-19T04:48:13;95635.00;;;18.30
10869;BMP180;62667;48.698;8.762;2022-08-19T04:50:42;95635.00;;;18.50
10869;BMP180;62667;48.698;8.762;2022-08-19T04:53:09;95643.00;;;18.50
10869;BMP180;62667;48.698;8.762;2022-08-19T04:55:40;95631.00;;;18.50
10869;BMP180;62667;48.698;8.762;2022-08-19T04:58:07;95625.00;;;18.40
10869;BMP180;62667;48.698;8.762;2022-08-19T05:00:39;95624.00;;;18.50
10869;BMP180;62667;48.698;8.762;2022-08-19T05:03:08;95627.00;;;18.40
10869;BMP180;62667;48.698;8.762;2022-08-19T05:05:39;95625.00;;;18.30
10869;BMP180;62667;48.698;8.762;2022-08-19T05:08:06;95640.00;;;18.30
10869;BMP180;62667;48.698;8.762;2022-08-19T05:10:36;95645.00;;;18.40
10869;BMP180;62667;48.698;8.762;2022-08-19T05:13:05;95658.00;;;18.30
10869;BMP180;62667;48.698;8.762;2022-08-19T05:15:35;95666.00;;;18.40
10869;BMP180;62667;48.698;8.762;2022-08-19T05:18:03;95664.00;;;18.40
10869;BMP180;62667;48.698;8.762;2022-08-19T05:20:48;95672.00;;;18.60
10869;BMP180;62667;48.698;8.762;2022-08-19T05:23:33;95677.00;;;18.60
10869;BMP180;62667;48.698;8.762;2022-08-19T05:26:00;95681.00;;;18.70
10869;BMP180;62667;48.698;8.762;2022-08-19T05:28:27;95691.00;;;18.60
10869;BMP180;62667;48.698;8.762;2022-08-19T05:30:54;95691.00;;;18.60
10869;BMP180;62667;48.698;8.762;2022-08-19T05:33:24;95693.00;;;18.50
10869;BMP180;62667;48.698;8.762;2022-08-19T05:35:51;95700.00;;;18.40
10869;BMP180;62667;48.698;8.762;2022-08-19T05:38:18;95710.00;;;18.50
10869;BMP180;62667;48.698;8.762;2022-08-19T05:40:46;95709.00;;;18.60
10869;BMP180;62667;48.698;8.762;2022-08-19T05:43:16;95714.00;;;18.50
10869;BMP180;62667;48.698;8.762;2022-08-19T05:45:43;95708.00;;;18.50
10869;BMP180;62667;48.698;8.762;2022-08-19T05:48:10;95715.00;;;18.60
10869;BMP180;62667;48.698;8.762;2022-08-19T05:50:39;95714.00;;;18.70
10869;BMP180;62667;48.698;8.762;2022-08-19T05:53:07;95715.00;;;18.70
10869;BMP180;62667;48.698;8.762;2022-08-19T05:55:35;95706.00;;;18.60
10869;BMP180;62667;48.698;8.762;2022-08-19T05:58:04;95711.00;;;18.70
10869;BMP180;62667;48.698;8.762;2022-08-19T06:00:34;95715.00;;;18.70
10869;BMP180;62667;48.698;8.762;2022-08-19T06:03:01;95723.00;;;18.70
10869;BMP180;62667;48.698;8.762;2022-08-19T06:05:29;95717.00;;;18.60
10869;BMP180;62667;48.698;8.762;2022-08-19T06:07:57;95722.00;;;18.70
10869;BMP180;62667;48.698;8.762;2022-08-19T06:10:27;95717.00;;;18.70
10869;BMP180;62667;48.698;8.762;2022-08-19T06:12:54;95710.00;;;18.70
10869;BMP180;62667;48.698;8.762;2022-08-19T06:15:22;95721.00;;;18.70
10869;BMP180;62667;48.698;8.762;2022-08-19T06:17:53;95718.00;;;18.80
10869;BMP180;62667;48.698;8.762;2022-08-19T06:20:20;95709.00;;;18.80
10869;BMP180;62667;48.698;8.762;2022-08-19T06:22:48;95706.00;;;18.80
10869;BMP180;62667;48.698;8.762;2022-08-19T06:25:18;95707.00;;;18.80
10869;BMP180;62667;48.698;8.762;2022-08-19T06:27:45;95711.00;;;18.80
10869;BMP180;62667;48.698;8.762;2022-08-19T06:30:13;95714.00;;;18.70
10869;BMP180;62667;48.698;8.762;2022-08-19T06:32:40;95709.00;;;18.80
10869;BMP180;62667;48.698;8.762;2022-08-19T06:35:07;95714.00;;;18.90
10869;BMP180;62667;48.698;8.762;2022-08-19T06:37:35;95701.00;;;18.80
10869;BMP180;62667;48.698;8.762;2022-08-19T06:40:02;95699.00;;;18.80
10869;BMP180;62667;48.698;8.762;2022-08-19T06:42:30;95703.00;;;18.70
10869;BMP180;62667;48.698;8.762;2022-08-19T06:44:57;95694.00;;;18.80
10869;BMP180;62667;48.698;8.762;2022-08-19T06:47:24;95688.00;;;19.00
10869;BMP180;62667;48.698;8.762;2022-08-19T06:49:53;95704.00;;;19.00
10869;BMP180;62667;48.698;8.762;2022-08-19T06:52:28;95700.00;;;19.20
10869;BMP180;62667;48.698;8.762;2022-08-19T06:54:55;95706.00;;;19.00
10869;BMP180;62667;48.698;8.762;2022-08-19T06:57:24;95709.00;;;19.10
10869;BMP180;62667;48.698;8.762;2022-08-19T06:59:52;95705.00;;;19.10
10869;BMP180;62667;48.698;8.762;2022-08-19T07:02:21;95709.00;;;19.20
10869;BMP180;62667;48.698;8.762;2022-08-19T07:04:52;95714.00;;;19.20
10869;BMP180;62667;48.698;8.762;2022-08-19T07:07:20;95716.00;;;19.30
10869;BMP180;62667;48.698;8.762;2022-08-19T07:09:49;95718.00;;;19.40
10869;BMP180;62667;48.698;8.762;2022-08-19T07:12:16;95719.00;;;19.50
10869;BMP180;62667;48.698;8.762;2022-08-19T07:14:43;95714.00;;;19.60
10869;BMP180;62667;48.698;8.762;2022-08-19T07:17:13;95719.00;;;19.60
10869;BMP180;62667;48.698;8.762;2022-08-19T07:19:39;95708.00;;;19.70
10869;BMP180;62667;48.698;8.762;2022-08-19T07:22:08;95716.00;;;19.80
10869;BMP180;62667;48.698;8.762;2022-08-19T07:24:36;95723.00;;;19.70
10869;BMP180;62667;48.698;8.762;2022-08-19T07:27:05;95724.00;;;19.70
10869;BMP180;62667;48.698;8.762;2022-08-19T07:29:35;95731.00;;;19.80
10869;BMP180;62667;48.698;8.762;2022-08-19T07:32:04;95735.00;;;19.70
10869;BMP180;62667;48.698;8.762;2022-08-19T07:34:32;95732.00;;;19.60
10869;BMP180;62667;48.698;8.762;2022-08-19T07:37:05;95744.00;;;19.60
10869;BMP180;62667;48.698;8.762;2022-08-19T07:39:34;95743.00;;;19.60
10869;BMP180;62667;48.698;8.762;2022-08-19T07:42:06;95739.00;;;19.50
10869;BMP180;62667;48.698;8.762;2022-08-19T07:44:34;95737.00;;;19.50
10869;BMP180;62667;48.698;8.762;2022-08-19T07:47:04;95733.00;;;19.70
10869;BMP180;62667;48.698;8.762;2022-08-19T07:49:32;95733.00;;;19.80
10869;BMP180;62667;48.698;8.762;2022-08-19T07:52:06;95733.00;;;20.00
10869;BMP180;62667;48.698;8.762;2022-08-19T07:54:37;95726.00;;;20.10
10869;BMP180;62667;48.698;8.762;2022-08-19T07:57:06;95729.00;;;20.10
10869;BMP180;62667;48.698;8.762;2022-08-19T07:59:33;95737.00;;;20.30
10869;BMP180;62667;48.698;8.762;2022-08-19T08:02:00;95718.00;;;20.40
10869;BMP180;62667;48.698;8.762;2022-08-19T08:04:28;95718.00;;;20.50
10869;BMP180;62667;48.698;8.762;2022-08-19T08:07:14;95711.00;;;20.90
10869;BMP180;62667;48.698;8.762;2022-08-19T08:09:59;95717.00;;;21.20
10869;BMP180;62667;48.698;8.762;2022-08-19T08:12:30;95723.00;;;21.40
10869;BMP180;62667;48.698;8.762;2022-08-19T08:14:59;95728.00;;;21.70
10869;BMP180;62667;48.698;8.762;2022-08-19T08:17:28;95726.00;;;21.70
10869;BMP180;62667;48.698;8.762;2022-08-19T08:19:58;95718.00;;;21.70
10869;BMP180;62667;48.698;8.762;2022-08-19T08:22:26;95725.00;;;21.80
10869;BMP180;62667;48.698;8.762;2022-08-19T08:25:17;95731.00;;;21.70
10869;BMP180;62667;48.698;8.762;2022-08-19T08:27:48;95740.00;;;21.50
10869;BMP180;62667;48.698;8.762;2022-08-19T08:30:18;95743.00;;;21.40
10869;BMP180;62667;48.698;8.762;2022-08-19T08:32:45;95747.00;;;21.30
10869;BMP180;62667;48.698;8.762;2022-08-19T08:35:14;95745.00;;;21.10
10869;BMP180;62667;48.698;8.762;2022-08-19T08:37:42;95754.00;;;21.10
10869;BMP180;62667;48.698;8.762;2022-08-19T08:40:17;95752.00;;;20.90
10869;BMP180;62667;48.698;8.762;2022-08-19T08:42:51;95752.00;;;20.80
10869;BMP180;62667;48.698;8.762;2022-08-19T08:45:21;95750.00;;;20.90
10869;BMP180;62667;48.698;8.762;2022-08-19T08:47:53;95751.00;;;20.90
10869;BMP180;62667;48.698;8.762;2022-08-19T08:50:28;95755.00;;;21.00
10869;BMP180;62667;48.698;8.762;2022-08-19T08:52:57;95750.00;;;21.00
10869;BMP180;62667;48.698;8.762;2022-08-19T08:55:27;95752.00;;;21.10
10869;BMP180;62667;48.698;8.762;2022-08-19T08:58:00;95756.00;;;21.20
10869;BMP180;62667;48.698;8.762;2022-08-19T09:00:29;95754.00;;;21.20
10869;BMP180;62667;48.698;8.762;2022-08-19T09:02:57;95752.00;;;21.20
10869;BMP180;62667;48.698;8.762;2022-08-19T09:05:30;95750.00;;;21.10
10869;BMP180;62667;48.698;8.762;2022-08-19T09:08:03;95758.00;;;21.20
10869;BMP180;62667;48.698;8.762;2022-08-19T09:10:37;95755.00;;;21.20
10869;BMP180;62667;48.698;8.762;2022-08-19T09:13:09;95751.00;;;21.30
10869;BMP180;62667;48.698;8.762;2022-08-19T09:15:43;95755.00;;;21.30
10869;BMP180;62667;48.698;8.762;2022-08-19T09:18:13;95761.00;;;21.10
10869;BMP180;62667;48.698;8.762;2022-08-19T09:20:41;95763.00;;;21.20
10869;BMP180;62667;48.698;8.762;2022-08-19T09:23:09;95760.00;;;21.10
10869;BMP180;62667;48.698;8.762;2022-08-19T09:25:37;95763.00;;;21.20
10869;BMP180;62667;48.698;8.762;2022-08-19T09:28:06;95763.00;;;21.20
10869;BMP180;62667;48.698;8.762;2022-08-19T09:30:38;95765.00;;;21.30
10869;BMP180;62667;48.698;8.762;2022-08-19T09:33:06;95771.00;;;21.20
10869;BMP180;62667;48.698;8.762;2022-08-19T09:35:33;95765.00;;;21.30
10869;BMP180;62667;48.698;8.762;2022-08-19T09:38:01;95756.00;;;21.30
10869;BMP180;62667;48.698;8.762;2022-08-19T09:40:29;95767.00;;;21.50
10869;BMP180;62667;48.698;8.762;2022-08-19T09:42:57;95760.00;;;21.60
10869;BMP180;62667;48.698;8.762;2022-08-19T09:45:28;95772.00;;;21.60
10869;BMP180;62667;48.698;8.762;2022-08-19T09:47:56;95783.00;;;21.50
10869;BMP180;62667;48.698;8.762;2022-08-19T09:50:23;95784.00;;;21.40
10869;BMP180;62667;48.698;8.762;2022-08-19T09:52:53;95789.00;;;21.50
10869;BMP180;62667;48.698;8.762;2022-08-19T09:55:20;95780.00;;;21.50
10869;BMP180;62667;48.698;8.762;2022-08-19T09:57:50;95777.00;;;21.60
10869;BMP180;62667;48.698;8.762;2022-08-19T10:00:19;95785.00;;;21.80
10869;BMP180;62667;48.698;8.762;2022-08-19T10:02:47;95779.00;;;21.70
10869;BMP180;62667;48.698;8.762;2022-08-19T10:05:14;95790.00;;;21.70
10869;BMP180;62667;48.698;8.762;2022-08-19T10:08:01;95786.00;;;21.70
10869;BMP180;62667;48.698;8.762;2022-08-19T10:10:34;95790.00;;;21.70
10869;BMP180;62667;48.698;8.762;2022-08-19T10:13:02;95792.00;;;21.80
10869;BMP180;62667;48.698;8.762;2022-08-19T10:15:29;95790.00;;;21.90
10869;BMP180;62667;48.698;8.762;2022-08-19T10:17:56;95793.00;;;22.00
10869;BMP180;62667;48.698;8.762;2022-08-19T10:20:23;95789.00;;;22.10
10869;BMP180;62667;48.698;8.762;2022-08-19T10:22:51;95783.00;;;22.00
10869;BMP180;62667;48.698;8.762;2022-08-19T10:25:17;95783.00;;;22.30
10869;BMP180;62667;48.698;8.762;2022-08-19T10:27:44;95784.00;;;22.30
10869;BMP180;62667;48.698;8.762;2022-08-19T10:30:14;95778.00;;;22.50
10869;BMP180;62667;48.698;8.762;2022-08-19T10:32:43;95774.00;;;22.60
10869;BMP180;62667;48.698;8.762;2022-08-19T10:35:14;95773.00;;;22.90
10869;BMP180;62667;48.698;8.762;2022-08-19T10:37:41;95783.00;;;23.10
10869;BMP180;62667;48.698;8.762;2022-08-19T10:40:09;95778.00;;;22.90
10869;BMP180;62667;48.698;8.762;2022-08-19T10:42:37;95775.00;;;22.90
10869;BMP180;62667;48.698;8.762;2022-08-19T10:45:06;95774.00;;;22.90
10869;BMP180;62667;48.698;8.762;2022-08-19T10:47:33;95768.00;;;22.80
10869;BMP180;62667;48.698;8.762;2022-08-19T10:50:00;95768.00;;;22.80
10869;BMP180;62667;48.698;8.762;2022-08-19T10:52:48;95766.00;;;22.80
10869;BMP180;62667;48.698;8.762;2022-08-19T10:55:17;95755.00;;;22.80
10869;BMP180;62667;48.698;8.762;2022-08-19T10:58:02;95764.00;;;22.80
10869;BMP180;62667;48.698;8.762;2022-08-19T11:00:29;95761.00;;;22.80
10869;BMP180;62667;48.698;8.762;2022-08-19T11:02:57;95766.00;;;22.70
10869;BMP180;62667;48.698;8.762;2022-08-19T11:05:24;95764.00;;;22.80
10869;BMP180;62667;48.698;8.762;2022-08-19T11:07:52;95764.00;;;22.70
10869;BMP180;62667;48.698;8.762;2022-08-19T11:10:19;95761.00;;;22.70
10869;BMP180;62667;48.698;8.762;2022-08-19T11:12:45;95751.00;;;22.80
10869;BMP180;62667;48.698;8.762;2022-08-19T11:15:13;95751.00;;;22.80
10869;BMP180;62667;48.698;8.762;2022-08-19T11:17:40;95752.00;;;22.80
10869;BMP180;62667;48.698;8.762;2022-08-19T11:20:09;95759.00;;;22.90
10869;BMP180;62667;48.698;8.762;2022-08-19T11:22:37;95745.00;;;22.90
10869;BMP180;62667;48.698;8.762;2022-08-19T11:25:04;95751.00;;;23.20
10869;BMP180;62667;48.698;8.762;2022-08-19T11:27:33;95748.00;;;23.20
10869;BMP180;62667;48.698;8.762;2022-08-19T11:30:04;95753.00;;;23.10
10869;BMP180;62667;48.698;8.762;2022-08-19T11:32:31;95749.00;;;23.20
10869;BMP180;62667;48.698;8.762;2022-08-19T11:34:58;95750.00;;;23.10
10869;BMP180;62667;48.698;8.762;2022-08-19T11:37:28;95761.00;;;23.20
10869;BMP180;62667;48.698;8.762;2022-08-19T11:39:57;95747.00;;;23.40
10869;BMP180;62667;48.698;8.762;2022-08-19T11:42:24;95736.00;;;23.80
10869;BMP180;62667;48.698;8.762;2022-08-19T11:45:12;95747.00;;;24.40
10869;BMP180;62667;48.698;8.762;2022-08-19T11:47:40;95756.00;;;24.60
10869;BMP180;62667;48.698;8.762;2022-08-19T11:50:07;95753.00;;;24.60
10869;BMP180;62667;48.698;8.762;2022-08-19T11:52:34;95758.00;;;24.50
10869;BMP180;62667;48.698;8.762;2022-08-19T11:55:01;95757.00;;;24.40
10869;BMP180;62667;48.698;8.762;2022-08-19T11:57:28;95755.00;;;24.00
10869;BMP180;62667;48.698;8.762;2022-08-19T11:59:55;95756.00;;;24.00
10869;BMP180;62667;48.698;8.762;2022-08-19T12:02:22;95752.00;;;24.20
10869;BMP180;62667;48.698;8.762;2022-08-19T12:04:49;95759.00;;;24.30
10869;BMP180;62667;48.698;8.762;2022-08-19T12:07:16;95754.00;;;24.30
10869;BMP180;62667;48.698;8.762;2022-08-19T12:09:44;95744.00;;;24.50
10869;BMP180;62667;48.698;8.762;2022-08-19T12:12:12;95740.00;;;24.90
10869;BMP180;62667;48.698;8.762;2022-08-19T12:14:39;95748.00;;;25.20
10869;BMP180;62667;48.698;8.762;2022-08-19T12:17:08;95748.00;;;25.30
10869;BMP180;62667;48.698;8.762;2022-08-19T12:19:37;95740.00;;;24.90
10869;BMP180;62667;48.698;8.762;2022-08-19T12:22:05;95742.00;;;25.00
10869;BMP180;62667;48.698;8.762;2022-08-19T12:24:34;95743.00;;;25.30
10869;BMP180;62667;48.698;8.762;2022-08-19T12:27:01;95745.00;;;25.50
10869;BMP180;62667;48.698;8.762;2022-08-19T12:29:29;95729.00;;;25.60
10869;BMP180;62667;48.698;8.762;2022-08-19T12:31:58;95716.00;;;25.40
10869;BMP180;62667;48.698;8.762;2022-08-19T12:34:28;95719.00;;;25.60
10869;BMP180;62667;48.698;8.762;2022-08-19T12:37:01;95725.00;;;25.90
10869;BMP180;62667;48.698;8.762;2022-08-19T12:39:28;95710.00;;;26.20
10869;BMP180;62667;48.698;8.762;2022-08-19T12:41:56;95728.00;;;26.20
10869;BMP180;62667;48.698;8.762;2022-08-19T12:44:24;95719.00;;;26.30
10869;BMP180;62667;48.698;8.762;2022-08-19T12:46:51;95727.00;;;26.80
10869;BMP180;62667;48.698;8.762;2022-08-19T12:49:18;95739.00;;;26.10
10869;BMP180;62667;48.698;8.762;2022-08-19T12:51:45;95753.00;;;25.20
10869;BMP180;62667;48.698;8.762;2022-08-19T12:54:12;95747.00;;;25.30
10869;BMP180;62667;48.698;8.762;2022-08-19T12:56:39;95756.00;;;25.50
10869;BMP180;62667;48.698;8.762;2022-08-19T12:59:05;95772.00;;;24.70
10869;BMP180;62667;48.698;8.762;2022-08-19T13:01:37;95775.00;;;24.20
10869;BMP180;62667;48.698;8.762;2022-08-19T13:04:04;95777.00;;;24.10
10869;BMP180;62667;48.698;8.762;2022-08-19T13:06:31;95777.00;;;23.90
10869;BMP180;62667;48.698;8.762;2022-08-19T13:08:58;95775.00;;;23.90
10869;BMP180;62667;48.698;8.762;2022-08-19T13:11:25;95783.00;;;24.10
10869;BMP180;62667;48.698;8.762;2022-08-19T13:13:53;95796.00;;;23.70
10869;BMP180;62667;48.698;8.762;2022-08-19T13:16:21;95785.00;;;23.60
10869;BMP180;62667;48.698;8.762;2022-08-19T13:18:49;95783.00;;;23.90
10869;BMP180;62667;48.698;8.762;2022-08-19T13:21:18;95775.00;;;23.90
10869;BMP180;62667;48.698;8.762;2022-08-19T13:23:47;95788.00;;;23.90
10869;BMP180;62667;48.698;8.762;2022-08-19T13:26:14;95790.00;;;23.80
10869;BMP180;62667;48.698;8.762;2022-08-19T13:28:42;95785.00;;;23.60
10869;BMP180;62667;48.698;8.762;2022-08-19T13:31:29;95784.00;;;23.70
10869;BMP180;62667;48.698;8.762;2022-08-19T13:34:17;95789.00;;;23.60
10869;BMP180;62667;48.698;8.762;2022-08-19T13:36:44;95789.00;;;23.40
10869;BMP180;62667;48.698;8.762;2022-08-19T13:39:11;95789.00;;;23.20
10869;BMP180;62667;48.698;8.762;2022-08-19T13:41:43;95793.00;;;23.20
10869;BMP180;62667;48.698;8.762;2022-08-19T13:44:14;95792.00;;;23.10
10869;BMP180;62667;48.698;8.762;2022-08-19T13:46:42;95787.00;;;23.30
10869;BMP180;62667;48.698;8.762;2022-08-19T13:49:11;95796.00;;;23.40
10869;BMP180;62667;48.698;8.762;2022-08-19T13:51:40;95778.00;;;23.40
10869;BMP180;62667;48.698;8.762;2022-08-19T13:54:07;95778.00;;;23.80
10869;BMP180;62667;48.698;8.762;2022-08-19T13:56:35;95784.00;;;23.70
10869;BMP180;62667;48.698;8.762;2022-08-19T13:59:02;95776.00;;;23.60
10869;BMP180;62667;48.698;8.762;2022-08-19T14:01:29;95787.00;;;23.80
10869;BMP180;62667;48.698;8.762;2022-08-19T14:03:56;95777.00;;;23.80
10869;BMP180;62667;48.698;8.762;2022-08-19T14:06:23;95790.00;;;23.90
10869;BMP180;62667;48.698;8.762;2022-08-19T14:08:52;95784.00;;;23.80
10869;BMP180;62667;48.698;8.762;2022-08-19T14:11:19;95777.00;;;23.80
10869;BMP180;62667;48.698;8.762;2022-08-19T14:13:46;95775.00;;;24.00
10869;BMP180;62667;48.698;8.762;2022-08-19T14:16:14;95782.00;;;23.90
10869;BMP180;62667;48.698;8.762;2022-08-19T14:18:41;95781.00;;;23.90
10869;BMP180;62667;48.698;8.762;2022-08-19T14:21:13;95784.00;;;24.00